KLZUKDTS

Guest
Details From KLZU - Gwinnett Co Briscoe Fld
To KDTS - Destin Ft Walton Beach
Flight Number -
Tags generated
Created
Modified
Stats Distance 251 nm / 465 km
Max Altitude 32,900 ft / 10,028 m
Waypoints 6
Social Downloads 0
Likes 0
Share VATSIM

Download

Looking for another format? Having issues loading an existing format? Contact us
Advertisement - Login to hide

Notes

Basic altitude profile: - Ascent Rate: 2500ft/min - Ascent Speed: 250kts - Cruise Altitude: 35000ft - Cruise Speed: 420kts - Descent Rate: 1500ft/min - Descent Speed: 250kts Options: - Use NATs: yes - Use PACOTS: yes - Use low airways: yes - Use high airways: yes

Route

KLZU CSG V454 BANBI KDTS

ID Type Via Altitude Latitude Longitude Leg Dist Tot Dist Heading (true) Name
O KLZU APT - 0 ft / 0 m 33.97808˚ -83.96237˚ - 0 nm - Gwinnett Co Briscoe Fld
CSG VOR - 32,900 ft / 10,028 m 32.61525˚ -85.01764˚ 97 nm 97 nm 213° / 213° COLUMBUS VORTAC
MILER FIX V454 (AWY-LO) 18,000 ft / 5,486 m 32.21604˚ -85.39732˚ 30 nm 128 nm 219° / 219° -
PEECH FIX V454 (AWY-LO) 18,000 ft / 5,486 m 32.04888˚ -85.55508˚ 12 nm 141 nm 219° / 219° -
BANBI FIX V454 (AWY-LO) 18,000 ft / 5,486 m 31.83453˚ -85.75981˚ 16 nm 157 nm 219° / 219° -
O KDTS APT - 0 ft / 0 m 30.40006˚ -86.47147˚ 93 nm 251 nm 203° / 203° Destin Ft Walton Beach

Altitude Profile

Advertisement - Login to hide

Weather


0- 5 10 15 20 25 30 35+ Temperature / ° C

Clouds and Precipitation
Forecast for 2017-12-15 00:00 UTC. Updated 5 minutes ago

Ground ~20,000 ft ~40,000 ft Winds

KLZU

Details ICAO KLZU (LZU)
Name Gwinnett Co Briscoe Fld
Region United States
Timezone America/New_York (UTC-5.0)
Stats Elevation 1,061 ft / 323 m (AMSL)
Location 33.978082° -83.962365°
Runways 1
Magnetic Variation 5.462° W

METAR

KLZU 142256Z 00000KT 10SM CLR 09/M01 A2993 RMK AO2 SLP150 T00941006

Decode

TAF

Not found

Departure Runways

ID Width Length Bearing (true) Bearing (mag) Surface Threshold Offset Overrun Length
07 98 ft / 30 m 5,995 ft / 1,827 m 63.58° 69.04° Asphalt 0 ft / 0 m 151 ft / 46 m
25 98 ft / 30 m 5,995 ft / 1,827 m 243.59° 249.05° Asphalt 0 ft / 0 m 151 ft / 46 m

KDTS

Details ICAO KDTS (DTS)
Name Destin Ft Walton Beach
Region United States
Timezone America/Chicago (UTC-6.0)
Stats Elevation 23 ft / 7 m (AMSL)
Location 30.400060° -86.471475°
Runways 1
Magnetic Variation 3.291° W

METAR

KDTS 142253Z 22005KT 10SM CLR 18/03 A2999 RMK AO2 SLP153 T01780028

Decode

TAF

Not found

Destination Runways

ID Width Length Bearing (true) Bearing (mag) Surface Threshold Offset Overrun Length
14 98 ft / 30 m 5,007 ft / 1,526 m 142.27° 145.56° Asphalt 0 ft / 0 m 200 ft / 61 m
32 98 ft / 30 m 5,007 ft / 1,526 m 322.28° 325.57° Asphalt 0 ft / 0 m 200 ft / 61 m

Popular Alternatives